createdAt,value
2017-07-27T00:00:21.451Z,84.50
2017-07-27T00:02:49.821Z,84.90
2017-07-27T00:05:18.151Z,84.50
2017-07-27T00:07:47.075Z,84.40
2017-07-27T00:10:15.414Z,83.80
2017-07-27T00:12:43.762Z,84.90
2017-07-27T00:15:12.114Z,84.60
2017-07-27T00:17:40.434Z,84.50
2017-07-27T00:20:08.774Z,84.50
2017-07-27T00:22:37.894Z,84.50
2017-07-27T00:25:06.242Z,84.70
2017-07-27T00:27:34.575Z,84.70
2017-07-27T00:30:04.869Z,84.50
2017-07-27T00:32:33.230Z,84.00
2017-07-27T00:35:01.559Z,84.40
2017-07-27T00:37:29.902Z,84.20
2017-07-27T00:39:58.231Z,85.20
2017-07-27T00:42:26.575Z,84.90
2017-07-27T00:44:54.927Z,84.90
2017-07-27T00:47:23.265Z,84.90
2017-07-27T00:49:51.601Z,85.70
2017-07-27T00:52:19.949Z,85.30
2017-07-27T00:54:48.270Z,84.80
2017-07-27T00:57:16.599Z,84.30
2017-07-27T00:59:44.949Z,85.50
2017-07-27T01:02:13.282Z,85.20
2017-07-27T01:04:41.654Z,84.90
2017-07-27T01:07:09.973Z,84.70
2017-07-27T01:09:38.344Z,87.70
2017-07-27T01:12:06.674Z,89.80
2017-07-27T01:14:35.017Z,88.60
2017-07-27T01:17:03.374Z,88.50
2017-07-27T01:19:31.743Z,88.50
2017-07-27T01:22:00.120Z,89.40
2017-07-27T01:24:45.586Z,88.60
2017-07-27T01:27:13.922Z,88.50
2017-07-27T01:29:42.281Z,89.10
2017-07-27T01:32:10.623Z,89.00
2017-07-27T01:34:38.940Z,88.00
2017-07-27T01:37:07.313Z,89.10
2017-07-27T01:39:35.637Z,88.50
2017-07-27T01:42:03.993Z,88.80
2017-07-27T01:44:32.332Z,88.70
2017-07-27T01:47:00.702Z,89.60
2017-07-27T01:49:29.033Z,88.00
2017-07-27T01:51:57.481Z,87.70
2017-07-27T01:54:25.818Z,86.90
2017-07-27T01:56:54.174Z,86.80
2017-07-27T01:59:22.527Z,87.00
2017-07-27T02:01:50.894Z,86.20
2017-07-27T02:04:19.219Z,86.10
2017-07-27T02:06:47.673Z,86.20
2017-07-27T02:09:16.077Z,86.20
2017-07-27T02:11:44.406Z,86.00
2017-07-27T02:14:12.812Z,86.20
2017-07-27T02:16:41.207Z,85.50
2017-07-27T02:19:09.627Z,85.30
2017-07-27T02:21:37.998Z,86.00
2017-07-27T02:24:06.348Z,85.50
2017-07-27T02:26:34.750Z,87.00
2017-07-27T02:29:03.130Z,86.80
2017-07-27T02:31:31.453Z,88.00
2017-07-27T02:33:59.782Z,90.00
2017-07-27T02:36:29.095Z,90.20
2017-07-27T02:38:57.417Z,90.30
2017-07-27T02:41:25.938Z,90.00
2017-07-27T02:43:54.281Z,88.90
2017-07-27T02:46:22.629Z,89.40
2017-07-27T02:48:50.961Z,89.40
2017-07-27T02:51:19.375Z,88.70
2017-07-27T02:53:47.707Z,88.50
2017-07-27T02:56:16.057Z,88.10
2017-07-27T02:58:44.415Z,88.30
2017-07-27T03:01:14.688Z,87.70
2017-07-27T03:03:43.057Z,87.20
2017-07-27T03:06:11.369Z,87.00
2017-07-27T03:08:39.725Z,86.50
2017-07-27T03:11:08.048Z,87.60
2017-07-27T03:13:36.387Z,88.70
2017-07-27T03:16:04.700Z,90.10
2017-07-27T03:18:33.069Z,90.30
2017-07-27T03:21:01.417Z,90.10
2017-07-27T03:23:49.112Z,90.50
2017-07-27T03:26:17.463Z,90.70
2017-07-27T03:28:45.779Z,90.20
2017-07-27T03:31:14.116Z,89.90
2017-07-27T03:33:42.516Z,89.00
2017-07-27T03:36:14.458Z,89.40
2017-07-27T03:38:42.773Z,88.40
2017-07-27T03:41:11.110Z,88.30
2017-07-27T03:43:39.433Z,88.50
2017-07-27T03:46:07.777Z,89.80
2017-07-27T03:48:36.099Z,89.30
2017-07-27T03:51:04.441Z,89.70
2017-07-27T03:53:32.756Z,89.40
2017-07-27T03:56:01.118Z,89.60
2017-07-27T03:58:29.451Z,89.10
2017-07-27T04:00:57.778Z,88.60
2017-07-27T04:03:26.121Z,88.40
2017-07-27T04:05:54.445Z,88.20
2017-07-27T04:08:22.790Z,88.80
2017-07-27T04:10:51.122Z,88.90
2017-07-27T04:13:19.465Z,89.00
2017-07-27T04:15:47.786Z,90.60
2017-07-27T04:18:17.045Z,91.20
2017-07-27T04:20:45.364Z,91.10
2017-07-27T04:23:13.733Z,90.90
2017-07-27T04:25:42.083Z,90.30
2017-07-27T04:28:10.430Z,90.30
2017-07-27T04:30:38.753Z,90.60
2017-07-27T04:33:07.088Z,90.30
2017-07-27T04:35:35.434Z,90.50
2017-07-27T04:38:03.762Z,90.40
2017-07-27T04:40:32.119Z,90.10
2017-07-27T04:43:00.440Z,90.60
2017-07-27T04:45:28.784Z,90.30
2017-07-27T04:47:57.107Z,90.00
2017-07-27T04:50:25.448Z,89.80
2017-07-27T04:52:53.761Z,90.20
2017-07-27T04:55:22.108Z,90.60
2017-07-27T04:57:58.211Z,90.60
2017-07-27T05:00:26.559Z,91.20
2017-07-27T05:02:54.632Z,91.20
2017-07-27T05:05:23.167Z,91.10
2017-07-27T05:07:51.235Z,91.00
2017-07-27T05:10:19.318Z,91.00
2017-07-27T05:12:47.405Z,91.10
2017-07-27T05:15:15.484Z,91.10
2017-07-27T05:17:43.854Z,91.10
2017-07-27T05:20:11.923Z,91.10
2017-07-27T05:22:40.025Z,90.90
2017-07-27T05:25:08.103Z,90.70
2017-07-27T05:27:36.209Z,90.80
2017-07-27T05:30:04.280Z,90.80
2017-07-27T05:32:32.386Z,90.40
2017-07-27T05:35:00.461Z,90.60
2017-07-27T05:37:28.558Z,90.70
2017-07-27T05:39:56.653Z,90.60
2017-07-27T05:42:24.730Z,91.40
2017-07-27T05:44:52.827Z,90.80
2017-07-27T05:47:20.912Z,90.90
2017-07-27T05:49:49.005Z,90.90
2017-07-27T05:52:17.112Z,90.40
2017-07-27T05:54:45.204Z,91.20
2017-07-27T05:57:13.296Z,90.80
2017-07-27T05:59:41.403Z,91.00
2017-07-27T06:02:09.661Z,90.90
2017-07-27T06:04:37.740Z,91.00
2017-07-27T06:07:05.831Z,91.10
2017-07-27T06:09:33.908Z,90.90
2017-07-27T06:12:02.133Z,90.90
2017-07-27T06:14:30.204Z,91.10
2017-07-27T06:16:58.314Z,91.20
2017-07-27T06:19:26.394Z,90.90
2017-07-27T06:21:54.484Z,90.80
2017-07-27T06:24:22.683Z,91.00
2017-07-27T06:26:50.782Z,90.90
2017-07-27T06:29:18.852Z,91.20
2017-07-27T06:31:46.951Z,91.30
2017-07-27T06:34:15.035Z,91.20
2017-07-27T06:36:43.165Z,91.30
2017-07-27T06:39:11.267Z,91.60
2017-07-27T06:41:39.342Z,91.20
2017-07-27T06:44:07.439Z,91.30
2017-07-27T06:46:35.534Z,91.40
2017-07-27T06:49:03.627Z,91.70
2017-07-27T06:51:32.699Z,91.70
2017-07-27T06:54:01.005Z,91.30
2017-07-27T06:56:29.072Z,91.80
2017-07-27T06:58:57.174Z,91.70
2017-07-27T07:01:25.255Z,91.60
2017-07-27T07:03:53.341Z,91.40
2017-07-27T07:06:21.427Z,91.40
2017-07-27T07:08:49.539Z,91.60
2017-07-27T07:11:17.610Z,91.70
2017-07-27T07:13:45.688Z,91.70
2017-07-27T07:16:13.779Z,91.60
2017-07-27T07:18:41.849Z,91.50
2017-07-27T07:21:09.943Z,91.60
2017-07-27T07:23:38.029Z,92.00
2017-07-27T07:26:06.125Z,91.80
2017-07-27T07:28:34.186Z,91.50
2017-07-27T07:31:02.276Z,91.30
2017-07-27T07:33:30.350Z,91.90
2017-07-27T07:35:58.453Z,91.80
2017-07-27T07:38:26.508Z,91.50
2017-07-27T07:40:54.606Z,91.40
2017-07-27T07:43:22.820Z,91.60
2017-07-27T07:45:50.898Z,91.30
2017-07-27T07:48:18.982Z,91.40
2017-07-27T07:50:47.053Z,91.20
2017-07-27T07:53:15.138Z,91.10
2017-07-27T07:55:43.203Z,91.20
2017-07-27T07:58:11.288Z,91.30
2017-07-27T08:00:39.364Z,90.90
2017-07-27T08:03:07.453Z,90.90
2017-07-27T08:05:35.521Z,90.70
2017-07-27T08:08:03.609Z,91.00
2017-07-27T08:10:31.688Z,91.00
2017-07-27T08:12:59.765Z,91.20
2017-07-27T08:15:27.848Z,91.10
2017-07-27T08:17:55.904Z,91.00
2017-07-27T08:20:23.994Z,91.10
2017-07-27T08:22:52.080Z,90.60
2017-07-27T08:25:20.224Z,91.20
2017-07-27T08:27:48.320Z,90.70
2017-07-27T08:30:16.422Z,90.80
2017-07-27T08:32:44.496Z,90.80
2017-07-27T08:35:12.557Z,90.70
2017-07-27T08:37:40.639Z,90.40
2017-07-27T08:40:08.706Z,90.60
2017-07-27T08:42:36.915Z,90.80
2017-07-27T08:45:05.419Z,90.70
2017-07-27T08:47:33.522Z,91.00
2017-07-27T08:50:01.609Z,90.40
2017-07-27T08:52:29.694Z,90.20
2017-07-27T08:54:57.776Z,90.80
2017-07-27T08:57:25.851Z,90.50
2017-07-27T08:59:53.988Z,90.50
2017-07-27T09:02:22.100Z,90.40
2017-07-27T09:04:50.160Z,90.30
2017-07-27T09:07:18.224Z,90.20
2017-07-27T09:09:46.308Z,90.20
2017-07-27T09:12:14.376Z,90.20
2017-07-27T09:14:42.452Z,90.50
2017-07-27T09:17:10.516Z,90.00
2017-07-27T09:19:38.592Z,90.10
2017-07-27T09:22:06.659Z,90.20
2017-07-27T09:24:34.745Z,90.60
2017-07-27T09:27:02.806Z,90.40
2017-07-27T09:29:30.913Z,90.50
2017-07-27T09:31:58.978Z,90.70
2017-07-27T09:34:27.047Z,90.70
2017-07-27T09:36:55.141Z,90.70
2017-07-27T09:39:23.209Z,90.90
2017-07-27T09:41:51.289Z,91.10
2017-07-27T09:44:19.360Z,91.10
2017-07-27T09:46:47.445Z,90.10
2017-07-27T09:49:15.503Z,90.90
2017-07-27T09:51:43.584Z,90.40
2017-07-27T09:54:11.654Z,91.30
2017-07-27T09:56:39.908Z,90.30
2017-07-27T09:59:07.981Z,90.10
2017-07-27T10:01:36.045Z,90.00
2017-07-27T10:04:04.131Z,89.90
2017-07-27T10:06:32.197Z,89.70
2017-07-27T10:09:00.277Z,89.10
2017-07-27T10:11:28.347Z,90.40
2017-07-27T10:13:56.483Z,90.00
2017-07-27T10:16:24.553Z,87.80
2017-07-27T10:18:52.645Z,89.40
2017-07-27T10:21:20.708Z,88.30
2017-07-27T10:23:48.819Z,87.70
2017-07-27T10:26:16.894Z,89.90
2017-07-27T10:28:44.951Z,88.70
2017-07-27T10:31:13.043Z,86.80
2017-07-27T10:33:41.170Z,85.80
2017-07-27T10:36:09.252Z,88.00
2017-07-27T10:38:37.322Z,87.50
2017-07-27T10:41:05.399Z,85.50
2017-07-27T10:43:33.460Z,85.80
2017-07-27T10:46:01.540Z,85.90
2017-07-27T10:48:29.666Z,86.10
2017-07-27T10:50:58.014Z,86.70
2017-07-27T10:53:26.099Z,85.80
2017-07-27T10:55:54.208Z,86.70
2017-07-27T10:58:22.356Z,86.30
2017-07-27T11:00:50.412Z,86.30
2017-07-27T11:03:18.496Z,86.30
2017-07-27T11:05:46.556Z,86.30
2017-07-27T11:08:14.652Z,86.30
2017-07-27T11:10:42.720Z,86.80
2017-07-27T11:13:10.828Z,87.10
2017-07-27T11:15:38.898Z,87.40
2017-07-27T11:18:06.981Z,86.90
2017-07-27T11:20:35.052Z,87.50
2017-07-27T11:23:04.146Z,87.60
2017-07-27T11:25:32.222Z,87.70
2017-07-27T11:28:00.325Z,86.60
2017-07-27T11:30:28.417Z,85.80
2017-07-27T11:32:56.488Z,84.30
2017-07-27T11:35:24.578Z,83.40
2017-07-27T11:37:52.758Z,84.00
2017-07-27T11:40:20.832Z,83.40
2017-07-27T11:42:48.887Z,82.60
2017-07-27T11:45:19.998Z,81.90
2017-07-27T11:47:48.058Z,82.30
2017-07-27T11:50:16.142Z,83.30
2017-07-27T11:52:44.307Z,82.40
2017-07-27T11:55:12.402Z,82.20
2017-07-27T11:57:40.461Z,81.30
2017-07-27T12:00:08.535Z,81.90
2017-07-27T12:02:36.623Z,81.30
2017-07-27T12:05:04.681Z,78.50
2017-07-27T12:07:32.953Z,78.10
2017-07-27T12:10:01.082Z,79.70
2017-07-27T12:12:29.159Z,79.10
2017-07-27T12:14:57.231Z,77.60
2017-07-27T12:17:25.307Z,78.40
2017-07-27T12:19:53.370Z,80.90
2017-07-27T12:22:21.444Z,77.00
2017-07-27T12:24:49.504Z,77.00
2017-07-27T12:27:17.585Z,77.10
2017-07-27T12:29:45.643Z,75.50
2017-07-27T12:32:13.716Z,76.00
2017-07-27T12:37:35.005Z,76.40
2017-07-27T12:40:03.075Z,76.80
2017-07-27T12:42:31.137Z,75.20
2017-07-27T12:44:59.224Z,74.50
2017-07-27T12:47:27.285Z,73.40
2017-07-27T12:49:55.375Z,74.80
2017-07-27T12:52:23.440Z,75.30
2017-07-27T12:54:51.537Z,75.30
2017-07-27T12:57:19.612Z,72.20
2017-07-27T12:59:47.693Z,72.40
2017-07-27T13:02:15.753Z,73.50
2017-07-27T13:04:43.851Z,74.00
2017-07-27T13:07:11.900Z,73.00
2017-07-27T13:09:39.968Z,72.60
2017-07-27T13:12:08.045Z,71.70
2017-07-27T13:14:36.099Z,73.40
2017-07-27T13:17:04.186Z,71.90
2017-07-27T13:19:32.249Z,70.70
2017-07-27T13:22:00.410Z,72.10
2017-07-27T13:24:28.468Z,72.80
2017-07-27T13:26:56.561Z,71.00
2017-07-27T13:29:24.676Z,70.70
2017-07-27T13:31:52.748Z,69.90
2017-07-27T13:34:20.828Z,70.00
2017-07-27T13:36:49.155Z,68.40
2017-07-27T13:39:17.220Z,67.90
2017-07-27T13:41:45.278Z,70.80
2017-07-27T13:44:13.376Z,71.10
2017-07-27T13:46:41.441Z,71.20
2017-07-27T13:49:09.522Z,69.70
2017-07-27T13:51:38.549Z,69.10
2017-07-27T13:54:06.629Z,71.50
2017-07-27T13:56:34.684Z,71.90
2017-07-27T13:59:02.756Z,70.80
2017-07-27T14:01:30.837Z,71.30
2017-07-27T14:03:58.941Z,71.30
2017-07-27T14:06:27.011Z,69.70
2017-07-27T14:08:55.061Z,69.80
2017-07-27T14:11:23.145Z,71.00
2017-07-27T14:13:51.256Z,70.60
2017-07-27T14:16:19.348Z,71.70
2017-07-27T14:18:47.405Z,70.60
2017-07-27T14:21:15.502Z,68.80
2017-07-27T14:23:43.560Z,69.60
2017-07-27T14:26:11.643Z,68.70
2017-07-27T14:28:39.710Z,70.20
2017-07-27T14:31:08.026Z,69.40
2017-07-27T14:33:36.116Z,69.60
2017-07-27T14:36:04.235Z,68.10
2017-07-27T14:38:32.296Z,68.00
2017-07-27T14:41:00.353Z,67.90
2017-07-27T14:43:28.445Z,67.40
2017-07-27T14:45:56.505Z,67.60
2017-07-27T14:48:24.618Z,67.60
2017-07-27T14:50:52.686Z,68.10
2017-07-27T14:53:20.785Z,67.50
2017-07-27T14:55:48.840Z,68.30
2017-07-27T14:58:16.924Z,68.10
2017-07-27T15:00:44.981Z,67.70
2017-07-27T15:03:13.207Z,68.10
2017-07-27T15:05:41.256Z,67.70
2017-07-27T15:08:09.351Z,69.90
2017-07-27T15:10:37.443Z,68.70
2017-07-27T15:13:05.547Z,68.60
2017-07-27T15:15:33.613Z,67.60
2017-07-27T15:18:01.698Z,66.10
2017-07-27T15:20:29.776Z,66.50
2017-07-27T15:22:57.840Z,66.50
2017-07-27T15:25:25.928Z,65.70
2017-07-27T15:27:53.997Z,66.30
2017-07-27T15:30:22.085Z,68.30
2017-07-27T15:32:50.139Z,67.70
2017-07-27T15:35:18.218Z,67.90
2017-07-27T15:37:46.280Z,68.00
2017-07-27T15:40:14.361Z,67.40
2017-07-27T15:42:42.417Z,68.60
2017-07-27T15:45:10.500Z,68.10
2017-07-27T15:47:38.580Z,67.50
2017-07-27T15:50:06.668Z,67.00
2017-07-27T15:52:34.744Z,66.00
2017-07-27T15:55:02.827Z,65.70
2017-07-27T15:57:30.908Z,67.00
2017-07-27T15:59:58.971Z,67.10
2017-07-27T16:02:27.067Z,66.40
2017-07-27T16:04:55.126Z,67.20
2017-07-27T16:07:23.188Z,67.30
2017-07-27T16:09:51.276Z,68.10
2017-07-27T16:12:19.349Z,67.90
2017-07-27T16:14:47.438Z,68.00
2017-07-27T16:17:15.488Z,67.60
2017-07-27T16:19:43.597Z,67.70
2017-07-27T16:22:11.656Z,69.50
2017-07-27T16:24:39.739Z,69.20
2017-07-27T16:30:07.339Z,69.30
2017-07-27T16:32:35.400Z,68.40
2017-07-27T16:35:03.494Z,68.50
2017-07-27T16:37:31.560Z,68.70
2017-07-27T16:39:59.621Z,69.90
2017-07-27T16:42:27.698Z,70.10
2017-07-27T16:44:55.757Z,69.50
2017-07-27T16:47:23.858Z,69.50
2017-07-27T16:49:51.928Z,70.70
2017-07-27T16:52:20.014Z,71.00
2017-07-27T16:54:48.074Z,70.60
2017-07-27T16:57:16.161Z,69.90
2017-07-27T16:59:44.217Z,70.50
2017-07-27T17:02:12.312Z,70.50
2017-07-27T17:04:40.395Z,70.70
2017-07-27T17:07:08.461Z,70.70
2017-07-27T17:09:36.544Z,71.20
2017-07-27T17:12:04.600Z,70.70
2017-07-27T17:14:32.684Z,70.90
2017-07-27T17:17:00.749Z,72.00
2017-07-27T17:19:28.823Z,70.90
2017-07-27T17:21:56.879Z,72.70
2017-07-27T17:24:24.952Z,71.40
2017-07-27T17:26:53.013Z,72.00
2017-07-27T17:29:21.110Z,71.70
2017-07-27T17:31:49.173Z,72.00
2017-07-27T17:34:17.227Z,72.80
2017-07-27T17:36:45.321Z,72.20
2017-07-27T17:39:13.385Z,72.20
2017-07-27T17:41:41.465Z,72.60
2017-07-27T17:44:09.524Z,72.80
2017-07-27T17:46:37.612Z,72.60
2017-07-27T17:49:05.677Z,72.80
2017-07-27T17:51:33.757Z,73.00
2017-07-27T17:54:01.968Z,72.80
2017-07-27T17:56:30.058Z,72.60
2017-07-27T17:58:58.124Z,73.30
2017-07-27T18:01:26.183Z,73.00
2017-07-27T18:03:54.260Z,73.20
2017-07-27T18:06:22.320Z,73.80
2017-07-27T18:08:50.401Z,74.60
2017-07-27T18:11:18.464Z,74.20
2017-07-27T18:13:46.628Z,74.30
2017-07-27T18:16:14.683Z,73.90
2017-07-27T18:18:42.773Z,73.00
2017-07-27T18:21:10.833Z,73.30
2017-07-27T18:23:38.913Z,74.00
2017-07-27T18:26:06.967Z,73.90
2017-07-27T18:28:35.029Z,74.30
2017-07-27T18:31:03.099Z,73.70
2017-07-27T18:33:31.160Z,73.80
2017-07-27T18:35:59.240Z,73.80
2017-07-27T18:38:27.310Z,73.20
2017-07-27T18:40:55.411Z,73.90
2017-07-27T18:43:23.477Z,73.80
2017-07-27T18:45:51.553Z,74.90
2017-07-27T18:48:19.608Z,74.70
2017-07-27T18:50:47.694Z,74.90
2017-07-27T18:53:15.762Z,74.80
2017-07-27T18:55:43.859Z,74.90
2017-07-27T18:58:11.942Z,74.70
2017-07-27T19:00:39.999Z,75.00
2017-07-27T19:03:08.078Z,75.00
2017-07-27T19:05:36.379Z,75.00
2017-07-27T19:08:04.706Z,75.40
2017-07-27T19:10:33.004Z,75.70
2017-07-27T19:13:01.324Z,75.80
2017-07-27T19:15:29.623Z,75.40
2017-07-27T19:17:57.947Z,75.30
2017-07-27T19:20:26.251Z,75.80
2017-07-27T19:22:54.578Z,75.50
2017-07-27T19:25:22.873Z,75.40
2017-07-27T19:27:51.209Z,76.00
2017-07-27T19:30:19.509Z,76.20
2017-07-27T19:32:47.805Z,76.30
2017-07-27T19:35:16.130Z,76.70
2017-07-27T19:37:44.427Z,77.00
2017-07-27T19:40:12.740Z,77.70
2017-07-27T19:42:41.040Z,78.30
2017-07-27T19:45:09.370Z,78.30
2017-07-27T19:47:37.720Z,78.00
2017-07-27T19:50:06.035Z,78.80
2017-07-27T19:52:34.343Z,79.30
2017-07-27T19:55:02.670Z,80.50
2017-07-27T19:57:30.967Z,79.50
2017-07-27T19:59:59.296Z,80.20
2017-07-27T20:02:27.599Z,79.50
2017-07-27T20:04:55.917Z,80.20
2017-07-27T20:07:24.217Z,80.60
2017-07-27T20:09:52.517Z,80.70
2017-07-27T20:12:20.908Z,80.40
2017-07-27T20:14:49.218Z,80.10
2017-07-27T20:17:17.540Z,79.70
2017-07-27T20:19:45.836Z,79.30
2017-07-27T20:22:14.159Z,79.20
2017-07-27T20:24:42.456Z,79.50
2017-07-27T20:27:10.824Z,78.90
2017-07-27T20:29:39.118Z,79.10
2017-07-27T20:32:07.453Z,79.10
2017-07-27T20:34:35.752Z,77.40
2017-07-27T20:37:04.063Z,77.70
2017-07-27T20:39:32.381Z,76.10
2017-07-27T20:42:00.774Z,76.30
2017-07-27T20:44:29.105Z,76.60
2017-07-27T20:46:57.401Z,76.60
2017-07-27T20:49:25.728Z,76.30
2017-07-27T20:51:54.097Z,77.00
2017-07-27T20:54:22.423Z,77.70
2017-07-27T20:56:50.924Z,77.50
2017-07-27T20:59:19.243Z,77.30
2017-07-27T21:01:47.545Z,77.70
2017-07-27T21:04:15.877Z,77.20
2017-07-27T21:06:44.181Z,77.40
2017-07-27T21:09:12.520Z,77.60
2017-07-27T21:11:40.834Z,79.60
2017-07-27T21:14:09.185Z,80.80
2017-07-27T21:16:37.545Z,82.70
2017-07-27T21:19:05.850Z,82.40
2017-07-27T21:21:34.175Z,83.10
2017-07-27T21:24:02.489Z,82.70
2017-07-27T21:26:30.822Z,83.10
2017-07-27T21:28:59.146Z,83.30
2017-07-27T21:31:27.481Z,83.20
2017-07-27T21:33:55.806Z,83.70
2017-07-27T21:36:24.150Z,83.40
2017-07-27T21:38:52.471Z,84.30
2017-07-27T21:41:20.809Z,84.00
2017-07-27T21:43:49.121Z,84.90
2017-07-27T21:46:17.472Z,84.80
2017-07-27T21:48:45.854Z,83.80
2017-07-27T21:51:14.173Z,84.50
2017-07-27T21:53:42.508Z,85.10
2017-07-27T21:56:10.823Z,84.70
2017-07-27T21:58:39.151Z,84.90
2017-07-27T22:01:07.459Z,84.30
2017-07-27T22:03:35.819Z,85.50
2017-07-27T22:06:04.133Z,84.80
2017-07-27T22:08:32.460Z,84.60
2017-07-27T22:11:00.774Z,85.70
2017-07-27T22:13:29.100Z,86.00
2017-07-27T22:15:57.417Z,85.50
2017-07-27T22:18:25.751Z,85.70
2017-07-27T22:20:54.060Z,86.10
2017-07-27T22:23:22.368Z,84.80
2017-07-27T22:25:50.727Z,85.00
2017-07-27T22:28:19.037Z,85.50
2017-07-27T22:30:47.372Z,84.90
2017-07-27T22:33:15.676Z,84.20
2017-07-27T22:35:44.007Z,83.80
2017-07-27T22:38:12.428Z,83.90
2017-07-27T22:40:40.753Z,83.70
2017-07-27T22:43:09.062Z,84.20
2017-07-27T22:45:37.411Z,84.50
2017-07-27T22:48:05.739Z,84.50
2017-07-27T22:50:34.068Z,83.20
2017-07-27T22:53:02.393Z,83.90
2017-07-27T22:55:30.688Z,84.70
2017-07-27T22:57:59.025Z,86.50
2017-07-27T23:00:27.328Z,87.10
2017-07-27T23:02:55.682Z,86.40
2017-07-27T23:05:23.993Z,86.00
2017-07-27T23:07:52.327Z,86.00
2017-07-27T23:10:20.640Z,86.30
2017-07-27T23:12:48.972Z,86.80
2017-07-27T23:15:17.273Z,87.20
2017-07-27T23:17:46.317Z,87.70
2017-07-27T23:20:14.649Z,87.10
2017-07-27T23:22:42.973Z,87.50
2017-07-27T23:25:11.286Z,87.30
2017-07-27T23:27:39.609Z,87.90
2017-07-27T23:30:07.979Z,87.90
2017-07-27T23:32:36.289Z,88.00
2017-07-27T23:35:04.615Z,88.10
2017-07-27T23:37:32.920Z,88.80
2017-07-27T23:40:01.262Z,89.30
2017-07-27T23:42:29.585Z,89.10
2017-07-27T23:44:57.911Z,89.40
2017-07-27T23:47:26.222Z,89.50
2017-07-27T23:49:54.555Z,88.90
2017-07-27T23:52:22.865Z,88.60
2017-07-27T23:54:51.192Z,88.20
2017-07-27T23:57:19.507Z,87.90
2017-07-27T23:59:47.820Z,87.40
